地図

経路データ

SID SEASON NUMBER BASIN SUBBASIN NAME ISO_TIME NATURE LAT LON WMO_WIND WMO_PRES WMO_AGENCY TRACK_TYPE DIST2LAND LANDFALL IFLAG USA_AGENCY USA_ATCF_ID USA_LAT USA_LON USA_RECORD USA_STATUS USA_WIND USA_PRES USA_SSHS USA_R34_NE USA_R34_SE USA_R34_SW USA_R34_NW USA_R50_NE USA_R50_SE USA_R50_SW USA_R50_NW USA_R64_NE USA_R64_SE USA_R64_SW USA_R64_NW USA_POCI USA_ROCI USA_RMW USA_EYE TOKYO_LAT TOKYO_LON TOKYO_GRADE TOKYO_WIND TOKYO_PRES TOKYO_R50_DIR TOKYO_R50_LONG TOKYO_R50_SHORT TOKYO_R30_DIR TOKYO_R30_LONG TOKYO_R30_SHORT TOKYO_LAND CMA_LAT CMA_LON CMA_CAT CMA_WIND CMA_PRES HKO_LAT HKO_LON HKO_CAT HKO_WIND HKO_PRES NEWDELHI_LAT NEWDELHI_LON NEWDELHI_GRADE NEWDELHI_WIND NEWDELHI_PRES NEWDELHI_CI NEWDELHI_DP NEWDELHI_POCI REUNION_LAT REUNION_LON REUNION_TYPE REUNION_WIND REUNION_PRES REUNION_TNUM REUNION_CI REUNION_RMW REUNION_R34_NE REUNION_R34_SE REUNION_R34_SW REUNION_R34_NW REUNION_R50_NE REUNION_R50_SE REUNION_R50_SW REUNION_R50_NW REUNION_R64_NE REUNION_R64_SE REUNION_R64_SW REUNION_R64_NW BOM_LAT BOM_LON BOM_TYPE BOM_WIND BOM_PRES BOM_TNUM BOM_CI BOM_RMW BOM_R34_NE BOM_R34_SE BOM_R34_SW BOM_R34_NW BOM_R50_NE BOM_R50_SE BOM_R50_SW BOM_R50_NW BOM_R64_NE BOM_R64_SE BOM_R64_SW BOM_R64_NW BOM_ROCI BOM_POCI BOM_EYE BOM_POS_METHOD BOM_PRES_METHOD NADI_LAT NADI_LON NADI_CAT NADI_WIND NADI_PRES WELLINGTON_LAT WELLINGTON_LON WELLINGTON_WIND WELLINGTON_PRES DS824_LAT DS824_LON DS824_STAGE DS824_WIND DS824_PRES TD9636_LAT TD9636_LON TD9636_STAGE TD9636_WIND TD9636_PRES TD9635_LAT TD9635_LON TD9635_WIND TD9635_PRES TD9635_ROCI NEUMANN_LAT NEUMANN_LON NEUMANN_CLASS NEUMANN_WIND NEUMANN_PRES MLC_LAT MLC_LON MLC_CLASS MLC_WIND MLC_PRES USA_GUST BOM_GUST BOM_GUST_PER REUNION_GUST REUNION_GUST_PER USA_SEAHGT USA_SEARAD_NE USA_SEARAD_SE USA_SEARAD_SW USA_SEARAD_NW STORM_SPEED STORM_DIR
1905099S13055 1905 17 SI MM NOT_NAMED 1905-04-09 00:00:00 TS -13.0000 54.7000 main 505 473 _________O____ -1 -13.0000 54.7000 TC 6 262
1905099S13055 1905 17 SI MM NOT_NAMED 1905-04-09 03:00:00 TS -13.0401 54.4000 main 473 439 _________P____ -1 -13.0401 54.4000 TC 6 260
1905099S13055 1905 17 SI MM NOT_NAMED 1905-04-09 06:00:00 TS -13.1000 54.1000 main 439 405 _________O____ -1 -13.1000 54.1000 TC 6 255
1905099S13055 1905 17 SI MM NOT_NAMED 1905-04-09 09:00:00 TS -13.1925 53.8000 main 405 371 _________P____ -1 -13.1925 53.8000 TC 6 251
1905099S13055 1905 17 SI MM NOT_NAMED 1905-04-09 12:00:00 TS -13.3000 53.5000 main 371 338 _________O____ -1 -13.3000 53.5000 TC 6 251
1905099S13055 1905 17 SI MM NOT_NAMED 1905-04-09 15:00:00 TS -13.4000 53.1925 main 338 304 _________P____ -1 -13.4000 53.1925 TC 6 251
1905099S13055 1905 17 SI MM NOT_NAMED 1905-04-09 18:00:00 TS -13.5000 52.9000 main 304 281 _________O____ -1 -13.5000 52.9000 TC 6 249
1905099S13055 1905 17 SI MM NOT_NAMED 1905-04-09 21:00:00 TS -13.5999 52.6500 main 271 248 _________P____ -1 -13.5999 52.6500 TC 5 248
1905099S13055 1905 17 SI MM NOT_NAMED 1905-04-10 00:00:00 TS -13.7000 52.4000 main 248 216 _________O____ -1 -13.7000 52.4000 TC 6 249
1905099S13055 1905 17 SI MM NOT_NAMED 1905-04-10 03:00:00 TS -13.8000 52.1000 main 216 183 _________P____ -1 -13.8000 52.1000 TC 6 251
1905099S13055 1905 17 SI MM NOT_NAMED 1905-04-10 06:00:00 TS -13.9000 51.8000 main 183 161 _________O____ -1 -13.9000 51.8000 TC 6 249
1905099S13055 1905 17 SI MM NOT_NAMED 1905-04-10 09:00:00 TS -13.9999 51.5500 main 151 129 _________P____ -1 -13.9999 51.5500 TC 5 248
1905099S13055 1905 17 SI MM NOT_NAMED 1905-04-10 12:00:00 TS -14.1000 51.3000 main 129 97 _________O____ -1 -14.1000 51.3000 TC 6 249
1905099S13055 1905 17 SI MM NOT_NAMED 1905-04-10 15:00:00 TS -14.2000 51.0150 main 97 63 _________P____ -1 -14.2000 51.0150 TC 6 251
1905099S13055 1905 17 SI MM NOT_NAMED 1905-04-10 18:00:00 TS -14.3000 50.7000 main 63 31 _________O____ -1 -14.3000 50.7000 TC 7 253
1905099S13055 1905 17 SI MM NOT_NAMED 1905-04-10 21:00:00 TS -14.4000 50.3575 main 31 0 _________P____ -1 -14.4000 50.3575 TC 7 254
1905099S13055 1905 17 SI MM NOT_NAMED 1905-04-11 00:00:00 TS -14.5000 50.0000 main 0 0 _________O____ -1 -14.5000 50.0000 TC 7 254
1905099S13055 1905 17 SI MM NOT_NAMED 1905-04-11 03:00:00 TS -14.5924 49.6499 main 0 0 _________P____ -1 -14.5924 49.6499 TC 7 254
1905099S13055 1905 17 SI MM NOT_NAMED 1905-04-11 06:00:00 TS -14.7000 49.3000 main 0 0 _________O____ -1 -14.7000 49.3000 TC 7 249
1905099S13055 1905 17 SI MM NOT_NAMED 1905-04-11 09:00:00 TS -14.8500 48.9425 main 0 0 _________P____ -1 -14.8500 48.9425 TC 7 246
1905099S13055 1905 17 SI MM NOT_NAMED 1905-04-11 12:00:00 TS -15.0000 48.6000 main 0 0 _________O____ -1 -15.0000 48.6000 TC 7 248
1905099S13055 1905 17 SI MM NOT_NAMED 1905-04-11 15:00:00 TS -15.0999 48.2924 main 0 0 _________P____ -1 -15.0999 48.2924 TC 6 251
1905099S13055 1905 17 SI MM NOT_NAMED 1905-04-11 18:00:00 TS -15.2000 48.0000 main 0 0 _________O____ -1 -15.2000 48.0000 TC 6 247
1905099S13055 1905 17 SI MM NOT_NAMED 1905-04-11 21:00:00 TS -15.3424 47.7075 main 0 0 _________P____ -1 -15.3424 47.7075 TC 7 243
1905099S13055 1905 17 SI MM NOT_NAMED 1905-04-12 00:00:00 TS -15.5000 47.4000 main 0 0 _________O____ -1 -15.5000 47.4000 TC 7 244
1905099S13055 1905 17 SI MM NOT_NAMED 1905-04-12 03:00:00 TS -15.6500 47.0500 main 0 0 _________P____ -1 -15.6500 47.0500 TC 7 246
1905099S13055 1905 17 SI MM NOT_NAMED 1905-04-12 06:00:00 TS -15.8000 46.7000 main 0 0 _________O____ -1 -15.8000 46.7000 TC 7 245
1905099S13055 1905 17 SI MM NOT_NAMED 1905-04-12 09:00:00 TS -15.9424 46.3999 main 10 0 _________P____ -1 -15.9424 46.3999 TC 7 243
1905099S13055 1905 17 SI MM NOT_NAMED 1905-04-12 12:00:00 TS -16.1000 46.1000 main 0 0 _________O____ -1 -16.1000 46.1000 TC 7 241
1905099S13055 1905 17 SI MM NOT_NAMED 1905-04-12 15:00:00 TS -16.2850 45.7500 main 0 0 _________P____ -1 -16.2850 45.7500 TC 8 239
1905099S13055 1905 17 SI MM NOT_NAMED 1905-04-12 18:00:00 TS -16.5000 45.4000 main 0 0 _________O____ -1 -16.5000 45.4000 TC 8 234
1905099S13055 1905 17 SI MM NOT_NAMED 1905-04-12 21:00:00 TS -16.7424 45.0924 main 0 0 _________P____ -1 -16.7424 45.0924 TC 8 229
1905099S13055 1905 17 SI MM NOT_NAMED 1905-04-13 00:00:00 TS -17.0000 44.8000 main 0 0 _________O____ -1 -17.0000 44.8000 TC 8 228
1905099S13055 1905 17 SI MM NOT_NAMED 1905-04-13 03:00:00 TS -17.2500 44.4999 main 0 0 _________P____ -1 -17.2500 44.4999 TC 8 229
1905099S13055 1905 17 SI MM NOT_NAMED 1905-04-13 06:00:00 TS -17.5000 44.2000 main 0 0 _________O____ -1 -17.5000 44.2000 TC 8 229
1905099S13055 1905 17 SI MM NOT_NAMED 1905-04-13 09:00:00 TS -17.7575 43.8925 main 10 10 _________P____ -1 -17.7575 43.8925 TC 8 229
1905099S13055 1905 17 SI MM NOT_NAMED 1905-04-13 12:00:00 TS -18.0000 43.6000 main 42 42 _________O____ -1 -18.0000 43.6000 TC 7 230
1905099S13055 1905 17 SI MM NOT_NAMED 1905-04-13 15:00:00 TS -18.2000 43.3349 main 73 73 _________P____ -1 -18.2000 43.3349 TC 6 230
1905099S13055 1905 17 SI MM NOT_NAMED 1905-04-13 18:00:00 TS -18.4000 43.1000 main 94 94 _________O____ -1 -18.4000 43.1000 TC 6 224
1905099S13055 1905 17 SI MM NOT_NAMED 1905-04-13 21:00:00 TS -18.6350 42.8850 main 118 118 _________P____ -1 -18.6350 42.8850 TC 6 217
1905099S13055 1905 17 SI MM NOT_NAMED 1905-04-14 00:00:00 TS -18.9000 42.7000 main 147 147 _________O____ -1 -18.9000 42.7000 TC 6 211
1905099S13055 1905 17 SI MM NOT_NAMED 1905-04-14 03:00:00 TS -19.1850 42.5350 main 178 178 _________P____ -1 -19.1850 42.5350 TC 7 205
1905099S13055 1905 17 SI MM NOT_NAMED 1905-04-14 06:00:00 TS -19.5000 42.4000 main 194 194 _________O____ -1 -19.5000 42.4000 TC 7 200
1905099S13055 1905 17 SI MM NOT_NAMED 1905-04-14 09:00:00 TS -19.8425 42.2775 main 200 189 _________P____ -1 -19.8425 42.2775 TC 7 195
1905099S13055 1905 17 SI MM NOT_NAMED 1905-04-14 12:00:00 TS -20.2000 42.2000 main 189 168 _________O____ -1 -20.2000 42.2000 TC 7 189
1905099S13055 1905 17 SI MM NOT_NAMED 1905-04-14 15:00:00 TS -20.5575 42.1700 main 161 145 _________P____ -1 -20.5575 42.1700 TC 7 0
1905099S13055 1905 17 SI MM NOT_NAMED 1905-04-14 18:00:00 TS -20.9000 42.2000 main 145 126 _________O____ -1 -20.9000 42.2000 TC 7 172
1905099S13055 1905 17 SI MM NOT_NAMED 1905-04-14 21:00:00 TS -21.1999 42.2626 main 126 108 _________P____ -1 -21.1999 42.2626 TC 6 163
1905099S13055 1905 17 SI MM NOT_NAMED 1905-04-15 00:00:00 TS -21.5000 42.4000 main 108 75 _________O____ -1 -21.5000 42.4000 TC 7 153
1905099S13055 1905 17 SI MM NOT_NAMED 1905-04-15 03:00:00 TS -21.8500 42.6200 main 70 30 _________P____ -1 -21.8500 42.6200 TC 8 146
1905099S13055 1905 17 SI MM NOT_NAMED 1905-04-15 06:00:00 TS -22.2000 42.9000 main 30 10 _________O____ -1 -22.2000 42.9000 TC 9 141
1905099S13055 1905 17 SI MM NOT_NAMED 1905-04-15 09:00:00 TS -22.5150 43.2000 main 10 0 _________P____ -1 -22.5150 43.2000 TC 8 137
1905099S13055 1905 17 SI MM NOT_NAMED 1905-04-15 12:00:00 TS -22.8000 43.5000 main 0 0 _________O____ -1 -22.8000 43.5000 TC 8 137
1905099S13055 1905 17 SI MM NOT_NAMED 1905-04-15 15:00:00 TS -23.0649 43.7502 main 0 0 _________P____ -1 -23.0649 43.7502 TC 7 137
1905099S13055 1905 17 SI MM NOT_NAMED 1905-04-15 18:00:00 TS -23.3000 44.0000 main 0 0 _________O____ -1 -23.3000 44.0000 TC 7 131
1905099S13055 1905 17 SI MM NOT_NAMED 1905-04-15 21:00:00 TS -23.5075 44.3001 main 0 0 _________P____ -1 -23.5075 44.3001 TC 7 126
1905099S13055 1905 17 SI MM NOT_NAMED 1905-04-16 00:00:00 TS -23.7000 44.6000 main 0 0 _________O____ -1 -23.7000 44.6000 TC 6 128
1905099S13055 1905 17 SI MM NOT_NAMED 1905-04-16 03:00:00 TS -23.8999 44.8576 main 0 0 _________P____ -1 -23.8999 44.8576 TC 6 131
1905099S13055 1905 17 SI MM NOT_NAMED 1905-04-16 06:00:00 TS -24.1000 45.1000 main 0 0 _________O____ -1 -24.1000 45.1000 TC 6 132
1905099S13055 1905 17 SI MM NOT_NAMED 1905-04-16 09:00:00 TS -24.2999 45.3426 main 0 0 _________P____ -1 -24.2999 45.3426 TC 6 131
1905099S13055 1905 17 SI MM NOT_NAMED 1905-04-16 12:00:00 TS -24.5000 45.6000 main 0 0 _________O____ -1 -24.5000 45.6000 TC 6 130
1905099S13055 1905 17 SI MM NOT_NAMED 1905-04-16 15:00:00 TS -24.7074 45.8850 main 0 0 _________P____ -1 -24.7074 45.8850 TC 7 126
1905099S13055 1905 17 SI MM NOT_NAMED 1905-04-16 18:00:00 TS -24.9000 46.2000 main 0 0 _________O____ -1 -24.9000 46.2000 TC 7 121
1905099S13055 1905 17 SI MM NOT_NAMED 1905-04-16 21:00:00 TS -25.0602 46.5424 main 0 0 _________P____ -1 -25.0602 46.5424 TC 7 115
1905099S13055 1905 17 SI MM NOT_NAMED 1905-04-17 00:00:00 TS -25.2000 46.9000 main 10 _________O____ -1 -25.2000 46.9000 TC 7 113

IBTrACS Databaseについて

本データベースは、米国NOAAが公開する1842年以降の世界の熱帯低気圧のベストトラックデータアーカイブInternational Best Track Archive for Climate Stewardship (IBTrACS)を、ウェブで閲覧しやすい形式に変換したものです。

最終更新日:2021-12-06